createdAt,value
2022-11-02T00:00:17.053Z,210
2022-11-02T00:02:18.527Z,210
2022-11-02T00:04:20.154Z,210
2022-11-02T00:06:21.677Z,210
2022-11-02T00:08:23.367Z,210
2022-11-02T00:10:24.595Z,210
2022-11-02T00:12:26.363Z,210
2022-11-02T00:14:28.144Z,210
2022-11-02T00:16:30.177Z,210
2022-11-02T00:18:31.922Z,210
2022-11-02T00:22:34.164Z,210
2022-11-02T00:24:36.076Z,210
2022-11-02T00:26:37.091Z,210
2022-11-02T00:28:38.522Z,210
2022-11-02T00:30:39.597Z,210
2022-11-02T00:32:41.398Z,210
2022-11-02T00:34:42.950Z,210
2022-11-02T00:38:46.290Z,210
2022-11-02T00:42:49.895Z,210
2022-11-02T00:44:51.409Z,210
2022-11-02T00:46:53.185Z,210
2022-11-02T00:48:54.425Z,210
2022-11-02T00:54:59.274Z,210
2022-11-02T00:59:01.668Z,210
2022-11-02T01:01:03.067Z,210
2022-11-02T01:03:04.952Z,210
2022-11-02T01:05:06.154Z,210
2022-11-02T01:07:07.461Z,210
2022-11-02T01:09:08.558Z,210
2022-11-02T01:11:10.297Z,210
2022-11-02T01:13:11.680Z,210
2022-11-02T01:15:13.651Z,210
2022-11-02T01:17:14.812Z,210
2022-11-02T01:19:24.935Z,210
2022-11-02T01:21:16.978Z,210
2022-11-02T01:25:19.575Z,210
2022-11-02T01:27:29.673Z,210
2022-11-02T01:31:24.050Z,210
2022-11-02T01:35:27.258Z,210
2022-11-02T01:37:28.645Z,210
2022-11-02T01:41:31.771Z,210
2022-11-02T01:43:33.711Z,210
2022-11-02T01:47:36.438Z,210
2022-11-02T01:51:39.534Z,210
2022-11-02T01:53:40.672Z,210
2022-11-02T01:55:42.400Z,210
2022-11-02T01:59:44.938Z,210
2022-11-02T02:03:48.209Z,210
2022-11-02T02:07:51.360Z,210
2022-11-02T02:09:52.802Z,210
2022-11-02T02:13:56.388Z,210
2022-11-02T02:17:58.694Z,210
2022-11-02T02:20:00.189Z,210
2022-11-02T02:24:03.073Z,210
2022-11-02T02:26:04.841Z,210
2022-11-02T02:28:06.467Z,210
2022-11-02T02:30:07.960Z,210
2022-11-02T02:36:12.734Z,210
2022-11-02T02:38:14.684Z,210
2022-11-02T02:40:16.469Z,210
2022-11-02T02:42:17.816Z,210
2022-11-02T02:46:20.613Z,210
2022-11-02T02:50:23.783Z,210
2022-11-02T02:52:24.798Z,210
2022-11-02T02:56:27.678Z,210
2022-11-02T03:00:30.623Z,210
2022-11-02T03:02:31.867Z,210
2022-11-02T03:06:34.702Z,210
2022-11-02T03:08:35.875Z,210
2022-11-02T03:10:37.335Z,210
2022-11-02T03:12:38.683Z,210
2022-11-02T03:14:40.022Z,210
2022-11-02T03:16:41.753Z,210
2022-11-02T03:18:43.471Z,210
2022-11-02T03:20:44.979Z,210
2022-11-02T03:24:47.581Z,210
2022-11-02T03:28:50.461Z,210
2022-11-02T03:30:51.850Z,210
2022-11-02T03:32:52.844Z,210
2022-11-02T03:34:54.471Z,210
2022-11-02T03:38:57.089Z,210
2022-11-02T03:40:58.463Z,210
2022-11-02T03:43:00.329Z,210
2022-11-02T03:45:01.539Z,210
2022-11-02T03:47:03.311Z,210
2022-11-02T03:49:07.545Z,210
2022-11-02T03:51:06.567Z,210
2022-11-02T03:53:07.980Z,210
2022-11-02T03:57:10.438Z,210
2022-11-02T03:59:11.870Z,210
2022-11-02T04:01:13.215Z,210
2022-11-02T04:03:14.627Z,210
2022-11-02T04:05:16.474Z,210
2022-11-02T04:07:17.828Z,210
2022-11-02T04:11:20.649Z,210
2022-11-02T04:13:22.290Z,210
2022-11-02T04:15:23.410Z,210
2022-11-02T04:17:24.507Z,210
2022-11-02T04:21:26.703Z,210
2022-11-02T04:23:28.170Z,210
2022-11-02T04:25:29.621Z,210
2022-11-02T04:27:30.737Z,210
2022-11-02T04:31:34.186Z,210
2022-11-02T04:33:35.791Z,210
2022-11-02T04:37:38.748Z,210
2022-11-02T04:41:40.990Z,360
2022-11-02T04:43:42.127Z,360
2022-11-02T04:47:45.403Z,360
2022-11-02T04:49:46.626Z,360
2022-11-02T04:51:49.816Z,360
2022-11-02T04:53:49.829Z,360
2022-11-02T04:57:53.411Z,360
2022-11-02T04:59:54.793Z,360
2022-11-02T05:01:56.299Z,360
2022-11-02T05:03:57.451Z,360
2022-11-02T05:05:58.614Z,360
2022-11-02T05:10:00.835Z,360
2022-11-02T05:12:02.709Z,360
2022-11-02T05:16:05.347Z,360
2022-11-02T05:18:07.464Z,360
2022-11-02T05:20:08.586Z,360
2022-11-02T05:22:09.666Z,360
2022-11-02T05:24:11.060Z,360
2022-11-02T05:26:13.001Z,360
2022-11-02T05:28:14.865Z,360
2022-11-02T05:30:16.022Z,360
2022-11-02T05:32:17.618Z,360
2022-11-02T05:34:19.475Z,360
2022-11-02T05:36:20.964Z,360
2022-11-02T05:38:22.660Z,360
2022-11-02T05:40:24.169Z,360
2022-11-02T05:42:25.649Z,360
2022-11-02T05:44:26.865Z,360
2022-11-02T05:46:28.393Z,360
2022-11-02T05:48:29.679Z,360
2022-11-02T05:52:32.827Z,360
2022-11-02T05:54:34.393Z,360
2022-11-02T05:58:37.785Z,360
2022-11-02T06:02:40.734Z,360
2022-11-02T06:04:42.338Z,360
2022-11-02T06:08:44.656Z,360
2022-11-02T06:10:46.101Z,360
2022-11-02T06:12:47.406Z,360
2022-11-02T06:14:48.892Z,360
2022-11-02T06:16:50.756Z,360
2022-11-02T06:18:52.085Z,360
2022-11-02T06:20:53.136Z,360
2022-11-02T06:22:54.606Z,360
2022-11-02T06:23:38.515Z,360
2022-11-02T06:25:40.403Z,360
2022-11-02T06:29:43.400Z,360
2022-11-02T06:31:45.015Z,360
2022-11-02T06:33:46.609Z,360
2022-11-02T06:35:47.918Z,360
2022-11-02T06:39:50.618Z,360
2022-11-02T06:41:52.550Z,360
2022-11-02T06:43:54.437Z,360
2022-11-02T06:45:55.534Z,360
2022-11-02T06:49:58.632Z,360
2022-11-02T06:52:00.422Z,360
2022-11-02T06:54:06.037Z,360
2022-11-02T06:56:03.227Z,360
2022-11-02T06:58:04.950Z,360
2022-11-02T07:00:06.872Z,360
2022-11-02T07:02:08.766Z,360
2022-11-02T07:04:10.590Z,360
2022-11-02T07:06:14.286Z,360
2022-11-02T07:08:12.919Z,280
2022-11-02T07:12:19.201Z,279
2022-11-02T07:14:16.783Z,279
2022-11-02T07:16:17.755Z,279
2022-11-02T07:18:19.067Z,279
2022-11-02T07:22:22.007Z,279
2022-11-02T07:24:23.439Z,279
2022-11-02T07:28:25.962Z,279
2022-11-02T07:32:28.885Z,281
2022-11-02T07:34:30.012Z,235
2022-11-02T07:38:32.990Z,237
2022-11-02T07:42:36.564Z,237
2022-11-02T07:44:37.695Z,236
2022-11-02T07:48:40.691Z,237
2022-11-02T07:50:42.419Z,239
2022-11-02T07:52:44.210Z,235
2022-11-02T07:54:45.845Z,235
2022-11-02T07:58:48.711Z,235
2022-11-02T08:00:49.730Z,190
2022-11-02T08:04:52.117Z,190
2022-11-02T08:06:53.850Z,249
2022-11-02T08:10:56.733Z,232
2022-11-02T08:15:02.305Z,280
2022-11-02T08:17:00.846Z,279
2022-11-02T08:21:03.801Z,279
2022-11-02T08:25:06.240Z,275
2022-11-02T08:27:07.694Z,275
2022-11-02T08:33:11.382Z,252
2022-11-02T08:35:13.130Z,253
2022-11-02T08:37:14.420Z,253
2022-11-02T08:39:18.804Z,253
2022-11-02T08:43:18.768Z,205
2022-11-02T08:45:20.295Z,235
2022-11-02T08:47:21.248Z,224
2022-11-02T08:49:22.900Z,218
2022-11-02T08:53:25.747Z,219
2022-11-02T08:55:26.802Z,268
2022-11-02T08:57:28.261Z,243
2022-11-02T08:59:29.603Z,227
2022-11-02T09:03:32.669Z,263
2022-11-02T09:05:33.768Z,237
2022-11-02T09:07:34.883Z,233
2022-11-02T09:09:36.377Z,230
2022-11-02T09:15:40.139Z,226
2022-11-02T09:17:41.886Z,255
2022-11-02T09:19:43.217Z,263
2022-11-02T09:21:44.779Z,242
2022-11-02T09:25:46.915Z,234
2022-11-02T09:27:51.574Z,235
2022-11-02T09:29:49.623Z,235
2022-11-02T09:31:51.069Z,237
2022-11-02T09:35:53.856Z,219
2022-11-02T09:37:54.758Z,227
2022-11-02T09:41:57.331Z,209
2022-11-02T09:43:59.047Z,254
2022-11-02T09:48:17.029Z,270
2022-11-02T09:52:04.819Z,203
2022-11-02T09:56:06.721Z,244
2022-11-02T09:58:07.967Z,242
2022-11-02T10:00:09.624Z,219
2022-11-02T10:02:11.317Z,219
2022-11-02T10:04:12.933Z,218
2022-11-02T10:06:14.338Z,214
2022-11-02T10:08:15.926Z,210
2022-11-02T10:12:18.783Z,210
2022-11-02T10:14:29.267Z,210
2022-11-02T10:18:23.070Z,210
2022-11-02T10:20:24.060Z,209
2022-11-02T10:22:25.748Z,209
2022-11-02T10:24:26.767Z,240
2022-11-02T10:26:28.009Z,237
2022-11-02T10:30:31.161Z,251
2022-11-02T10:34:33.681Z,233
2022-11-02T10:36:35.446Z,233
2022-11-02T10:38:36.356Z,233
2022-11-02T10:40:37.546Z,233
2022-11-02T10:42:39.385Z,215
2022-11-02T10:44:40.662Z,192
2022-11-02T10:46:42.468Z,218
2022-11-02T10:48:43.397Z,226
2022-11-02T10:50:44.470Z,226
2022-11-02T10:56:47.200Z,220
2022-11-02T10:58:48.806Z,360
2022-11-02T11:00:50.680Z,360
2022-11-02T11:02:51.988Z,294
2022-11-02T11:06:55.234Z,208
2022-11-02T11:08:56.975Z,240
2022-11-02T11:10:58.677Z,255
2022-11-02T11:12:59.985Z,255
2022-11-02T11:23:06.173Z,229
2022-11-02T11:27:09.263Z,183
2022-11-02T11:29:10.986Z,231
2022-11-02T11:33:13.922Z,209
2022-11-02T11:37:16.388Z,202
2022-11-02T11:39:17.512Z,211
2022-11-02T11:43:20.474Z,212
2022-11-02T11:45:22.173Z,207
2022-11-02T11:47:23.877Z,258
2022-11-02T11:49:36.268Z,260
2022-11-02T11:53:28.030Z,246
2022-11-02T11:55:29.635Z,309
2022-11-02T11:59:31.670Z,271
2022-11-02T12:01:32.808Z,288
2022-11-02T12:05:35.884Z,236
2022-11-02T12:09:38.822Z,235
2022-11-02T12:11:40.214Z,227
2022-11-02T12:15:42.166Z,197
2022-11-02T12:19:45.727Z,257
2022-11-02T12:21:46.990Z,258
2022-11-02T12:23:48.256Z,230
2022-11-02T12:25:49.683Z,228
2022-11-02T12:27:51.300Z,262
2022-11-02T12:29:52.995Z,210
2022-11-02T12:31:58.133Z,217
2022-11-02T12:33:55.870Z,255
2022-11-02T12:37:58.520Z,251
2022-11-02T12:42:00.254Z,247
2022-11-02T12:44:01.620Z,222
2022-11-02T12:46:02.646Z,249
2022-11-02T12:48:04.499Z,251
2022-11-02T12:50:05.232Z,219
2022-11-02T12:54:07.773Z,261
2022-11-02T12:58:10.057Z,229
2022-11-02T13:00:11.734Z,239
2022-11-02T13:02:12.689Z,259
2022-11-02T13:04:14.015Z,210
2022-11-02T13:06:15.587Z,283
2022-11-02T13:08:17.225Z,252
2022-11-02T13:09:00.942Z,236
2022-11-02T13:11:02.700Z,261
2022-11-02T13:13:04.050Z,218
2022-11-02T13:15:09.383Z,217
2022-11-02T13:17:07.163Z,293
2022-11-02T13:19:08.039Z,217
2022-11-02T13:21:09.266Z,204
2022-11-02T13:25:12.360Z,245
2022-11-02T13:27:33.896Z,230
2022-11-02T13:29:15.356Z,208
2022-11-02T13:31:17.773Z,249
2022-11-02T13:35:20.472Z,240
2022-11-02T13:37:21.772Z,237
2022-11-02T13:39:22.721Z,275
2022-11-02T13:41:23.588Z,167
2022-11-02T13:45:26.419Z,191
2022-11-02T13:47:28.174Z,247
2022-11-02T13:49:29.131Z,197
2022-11-02T13:51:30.094Z,270
2022-11-02T13:55:32.880Z,217
2022-11-02T13:57:33.760Z,242
2022-11-02T13:59:36.775Z,240
2022-11-02T14:01:36.890Z,291
2022-11-02T14:03:37.722Z,291
2022-11-02T14:07:40.173Z,218
2022-11-02T14:11:43.379Z,230
2022-11-02T14:13:45.064Z,279
2022-11-02T14:17:47.521Z,255
2022-11-02T14:19:48.512Z,251
2022-11-02T14:23:51.621Z,221
2022-11-02T14:27:53.356Z,200
2022-11-02T14:29:54.704Z,230
2022-11-02T14:33:57.441Z,261
2022-11-02T14:35:58.445Z,256
2022-11-02T14:37:59.354Z,285
2022-11-02T14:40:00.992Z,285
2022-11-02T14:42:02.580Z,282
2022-11-02T14:44:03.674Z,281
2022-11-02T14:46:05.048Z,223
2022-11-02T14:48:05.437Z,223
2022-11-02T14:50:06.407Z,227
2022-11-02T14:52:07.358Z,227
2022-11-02T14:54:08.357Z,227
2022-11-02T14:56:10.188Z,227
2022-11-02T14:58:11.663Z,207
2022-11-02T15:00:13.157Z,241
2022-11-02T15:02:14.426Z,242
2022-11-02T15:06:16.414Z,242
2022-11-02T15:08:17.719Z,242
2022-11-02T15:10:18.711Z,242
2022-11-02T15:12:20.120Z,242
2022-11-02T15:16:22.695Z,243
2022-11-02T15:18:23.734Z,243
2022-11-02T15:22:26.917Z,243
2022-11-02T15:26:30.133Z,243
2022-11-02T15:28:31.481Z,226
2022-11-02T15:32:34.141Z,226
2022-11-02T15:36:36.578Z,225
2022-11-02T15:38:40.124Z,225
2022-11-02T15:42:41.119Z,225
2022-11-02T15:44:42.285Z,225
2022-11-02T15:46:44.045Z,225
2022-11-02T15:48:45.554Z,225
2022-11-02T15:54:48.716Z,225
2022-11-02T15:56:50.165Z,225
2022-11-02T15:58:51.979Z,225
2022-11-02T16:00:53.053Z,225
2022-11-02T16:04:56.006Z,225
2022-11-02T16:06:57.267Z,225
2022-11-02T16:08:59.045Z,225
2022-11-02T16:11:00.435Z,225
2022-11-02T16:15:03.249Z,225
2022-11-02T16:17:04.313Z,225
2022-11-02T16:19:05.866Z,225
2022-11-02T16:21:07.540Z,225
2022-11-02T16:23:08.726Z,225
2022-11-02T16:25:10.119Z,225
2022-11-02T16:27:11.092Z,225
2022-11-02T16:29:12.701Z,225
2022-11-02T16:31:17.750Z,225
2022-11-02T16:33:15.492Z,225
2022-11-02T16:35:17.386Z,225
2022-11-02T16:37:18.581Z,225
2022-11-02T16:39:20.256Z,225
2022-11-02T16:41:21.422Z,225
2022-11-02T16:43:22.462Z,225
2022-11-02T16:47:25.446Z,225
2022-11-02T16:49:26.739Z,225
2022-11-02T16:53:29.352Z,225
2022-11-02T16:57:32.199Z,225
2022-11-02T16:59:33.846Z,225
2022-11-02T17:01:35.059Z,225
2022-11-02T17:03:35.912Z,225
2022-11-02T17:07:39.193Z,225
2022-11-02T17:09:40.875Z,225
2022-11-02T17:11:42.419Z,225
2022-11-02T17:13:43.886Z,225
2022-11-02T17:17:46.121Z,225
2022-11-02T17:19:47.140Z,225
2022-11-02T17:21:49.072Z,225
2022-11-02T17:23:50.217Z,225
2022-11-02T17:25:51.372Z,225
2022-11-02T17:27:52.315Z,225
2022-11-02T17:29:53.573Z,225
2022-11-02T17:33:56.732Z,225
2022-11-02T17:35:58.081Z,225
2022-11-02T17:40:01.310Z,225
2022-11-02T17:42:03.014Z,225
2022-11-02T17:46:06.457Z,225
2022-11-02T17:50:10.178Z,225
2022-11-02T17:52:11.794Z,225
2022-11-02T17:56:14.403Z,225
2022-11-02T18:00:17.012Z,225
2022-11-02T18:02:18.195Z,225
2022-11-02T18:04:19.128Z,225
2022-11-02T18:06:21.073Z,225
2022-11-02T18:08:22.912Z,225
2022-11-02T18:10:24.776Z,225
2022-11-02T18:12:26.740Z,225
2022-11-02T18:14:37.651Z,225
2022-11-02T18:18:32.093Z,225
2022-11-02T18:20:42.451Z,225
2022-11-02T18:22:35.270Z,225
2022-11-02T18:24:36.313Z,225
2022-11-02T18:28:39.276Z,225
2022-11-02T18:30:40.692Z,225
2022-11-02T18:32:41.841Z,225
2022-11-02T18:34:43.088Z,225
2022-11-02T18:38:45.625Z,225
2022-11-02T18:40:47.536Z,225
2022-11-02T18:42:49.152Z,225
2022-11-02T18:44:50.182Z,225
2022-11-02T18:46:51.705Z,225
2022-11-02T18:48:52.975Z,225
2022-11-02T18:50:54.915Z,225
2022-11-02T18:52:56.640Z,225
2022-11-02T18:54:57.764Z,225
2022-11-02T18:56:58.961Z,225
2022-11-02T18:59:00.759Z,225
2022-11-02T19:01:02.103Z,225
2022-11-02T19:03:03.771Z,225
2022-11-02T19:05:05.268Z,225
2022-11-02T19:07:07.564Z,225
2022-11-02T19:11:10.189Z,225
2022-11-02T19:13:11.216Z,225
2022-11-02T19:15:12.820Z,225
2022-11-02T19:17:14.443Z,225
2022-11-02T19:21:17.003Z,225
2022-11-02T19:23:18.132Z,225
2022-11-02T19:25:19.593Z,225
2022-11-02T19:27:20.594Z,225
2022-11-02T19:29:22.017Z,225
2022-11-02T19:31:23.498Z,225
2022-11-02T19:33:24.850Z,225
2022-11-02T19:35:26.469Z,225
2022-11-02T19:37:33.404Z,225
2022-11-02T19:39:30.192Z,225
2022-11-02T19:41:31.623Z,225
2022-11-02T19:43:32.647Z,225
2022-11-02T19:45:33.801Z,225
2022-11-02T19:47:35.610Z,225
2022-11-02T19:49:36.642Z,225
2022-11-02T19:53:39.291Z,225
2022-11-02T19:54:23.158Z,225
2022-11-02T19:56:24.688Z,225
2022-11-02T19:58:26.522Z,225
2022-11-02T20:00:27.991Z,225
2022-11-02T20:04:31.475Z,225
2022-11-02T20:08:34.047Z,225
2022-11-02T20:10:35.298Z,225
2022-11-02T20:12:36.636Z,225
2022-11-02T20:14:38.315Z,225
2022-11-02T20:18:41.029Z,225
2022-11-02T20:20:42.598Z,225
2022-11-02T20:22:44.421Z,225
2022-11-02T20:24:45.674Z,225
2022-11-02T20:26:47.497Z,225
2022-11-02T20:30:51.094Z,225
2022-11-02T20:32:52.903Z,225
2022-11-02T20:34:54.516Z,225
2022-11-02T20:36:55.771Z,225
2022-11-02T20:40:58.461Z,225
2022-11-02T20:43:00.430Z,225
2022-11-02T20:47:03.379Z,225
2022-11-02T20:51:06.390Z,225
2022-11-02T20:53:08.169Z,225
2022-11-02T20:57:10.668Z,225
2022-11-02T21:01:14.066Z,225
2022-11-02T21:03:15.602Z,225
2022-11-02T21:07:18.144Z,225
2022-11-02T21:09:19.877Z,225
2022-11-02T21:11:21.273Z,225
2022-11-02T21:13:22.749Z,225
2022-11-02T21:17:26.288Z,225
2022-11-02T21:19:27.588Z,225
2022-11-02T21:21:29.267Z,225
2022-11-02T21:23:30.353Z,225
2022-11-02T21:25:31.456Z,225
2022-11-02T21:29:34.674Z,225
2022-11-02T21:31:36.562Z,225
2022-11-02T21:33:38.563Z,225
2022-11-02T21:35:39.747Z,225
2022-11-02T21:39:42.519Z,225
2022-11-02T21:41:43.937Z,225
2022-11-02T21:43:45.334Z,225
2022-11-02T21:45:46.918Z,225
2022-11-02T21:47:48.200Z,225
2022-11-02T21:49:49.960Z,225
2022-11-02T21:51:51.341Z,225
2022-11-02T21:53:52.994Z,225
2022-11-02T21:55:54.312Z,225
2022-11-02T21:57:55.969Z,225
2022-11-02T21:59:57.665Z,225
2022-11-02T22:01:59.338Z,225
2022-11-02T22:04:00.618Z,225
2022-11-02T22:06:01.982Z,225
2022-11-02T22:08:03.193Z,225
2022-11-02T22:12:06.553Z,225
2022-11-02T22:14:08.136Z,225
2022-11-02T22:16:09.956Z,225
2022-11-02T22:18:11.786Z,225
2022-11-02T22:22:14.150Z,225
2022-11-02T22:24:15.675Z,225
2022-11-02T22:26:17.199Z,225
2022-11-02T22:28:19.160Z,225
2022-11-02T22:30:20.907Z,225
2022-11-02T22:32:21.927Z,225
2022-11-02T22:34:23.317Z,225
2022-11-02T22:36:25.229Z,225
2022-11-02T22:38:26.909Z,225
2022-11-02T22:40:28.787Z,225
2022-11-02T22:42:30.641Z,225
2022-11-02T22:44:31.793Z,225
2022-11-02T22:46:32.890Z,225
2022-11-02T22:48:33.947Z,225
2022-11-02T22:50:35.939Z,225
2022-11-02T22:54:38.293Z,225
2022-11-02T22:56:39.738Z,225
2022-11-02T23:00:42.671Z,225
2022-11-02T23:04:46.529Z,225
2022-11-02T23:06:47.688Z,225
2022-11-02T23:08:49.474Z,225
2022-11-02T23:10:52.032Z,225
2022-11-02T23:12:52.149Z,225
2022-11-02T23:14:53.749Z,225
2022-11-02T23:16:55.158Z,225
2022-11-02T23:20:59.167Z,225
2022-11-02T23:25:01.531Z,225
2022-11-02T23:27:03.326Z,225
2022-11-02T23:29:04.722Z,225
2022-11-02T23:33:08.750Z,225
2022-11-02T23:37:11.487Z,225
2022-11-02T23:39:12.884Z,225
2022-11-02T23:41:14.388Z,225
2022-11-02T23:43:16.233Z,225
2022-11-02T23:47:19.160Z,225
2022-11-02T23:49:20.709Z,225
2022-11-02T23:51:22.500Z,225
2022-11-02T23:53:23.564Z,225
2022-11-02T23:57:26.768Z,225
2022-11-02T23:59:27.898Z,225
